createdAt,value
2023-03-31T00:01:44.273Z,96.38
2023-03-31T00:04:13.352Z,96.62
2023-03-31T00:06:42.049Z,96.59
2023-03-31T00:09:11.883Z,96.64
2023-03-31T00:11:39.050Z,96.53
2023-03-31T00:14:08.528Z,96.74
2023-03-31T00:16:36.523Z,96.91
2023-03-31T00:19:03.354Z,96.77
2023-03-31T00:21:33.613Z,96.82
2023-03-31T00:24:04.313Z,97.15
2023-03-31T00:26:31.479Z,96.18
2023-03-31T00:28:58.780Z,96.38
2023-03-31T00:31:25.588Z,96.77
2023-03-31T00:33:52.049Z,96.72
2023-03-31T00:36:21.774Z,96.49
2023-03-31T00:38:49.152Z,96.45
2023-03-31T00:41:16.124Z,96.62
2023-03-31T00:44:00.833Z,97.90
2023-03-31T00:46:33.613Z,96.54
2023-03-31T00:49:00.287Z,96.20
2023-03-31T00:51:29.666Z,96.15
2023-03-31T00:54:00.772Z,96.18
2023-03-31T00:56:32.578Z,96.25
2023-03-31T00:59:03.815Z,96.29
2023-03-31T01:01:31.227Z,95.74
2023-03-31T01:03:59.675Z,95.81
2023-03-31T01:06:26.327Z,95.82
2023-03-31T01:08:53.151Z,95.58
2023-03-31T01:11:24.398Z,95.67
2023-03-31T01:13:53.100Z,95.15
2023-03-31T01:16:19.733Z,95.15
2023-03-31T01:18:49.943Z,94.86
2023-03-31T01:21:57.026Z,95.79
2023-03-31T01:24:35.687Z,94.82
2023-03-31T01:27:28.115Z,95.27
2023-03-31T01:30:36.238Z,95.09
2023-03-31T01:33:27.027Z,95.10
2023-03-31T01:36:02.667Z,94.94
2023-03-31T01:38:32.257Z,94.20
2023-03-31T01:41:06.390Z,94.52
2023-03-31T01:43:41.610Z,94.44
2023-03-31T01:46:17.247Z,93.96
2023-03-31T01:49:08.368Z,94.17
2023-03-31T01:51:40.939Z,93.58
2023-03-31T01:54:19.328Z,93.88
2023-03-31T01:57:00.400Z,93.81
2023-03-31T01:59:31.245Z,93.01
2023-03-31T02:02:10.779Z,93.19
2023-03-31T02:04:48.329Z,93.33
2023-03-31T02:07:19.729Z,92.77
2023-03-31T02:09:53.531Z,92.79
2023-03-31T02:12:22.419Z,92.65
2023-03-31T02:14:52.712Z,92.46
2023-03-31T02:17:23.462Z,92.25
2023-03-31T02:19:53.499Z,92.29
2023-03-31T02:22:23.982Z,92.15
2023-03-31T02:24:53.466Z,92.45
2023-03-31T02:27:31.327Z,92.55
2023-03-31T02:29:58.607Z,91.84
2023-03-31T02:32:39.129Z,92.26
2023-03-31T02:35:08.017Z,91.97
2023-03-31T02:37:34.850Z,91.74
2023-03-31T02:40:10.483Z,92.00
2023-03-31T02:42:41.774Z,92.33
2023-03-31T02:45:48.140Z,92.76
2023-03-31T02:48:26.238Z,92.12
2023-03-31T02:51:16.502Z,92.76
2023-03-31T02:54:01.568Z,91.96
2023-03-31T02:56:33.798Z,91.89
2023-03-31T02:59:28.520Z,92.43
2023-03-31T03:02:10.795Z,92.42
2023-03-31T03:04:37.295Z,91.62
2023-03-31T03:07:10.017Z,92.05
2023-03-31T03:09:55.166Z,92.95
2023-03-31T03:12:28.915Z,92.72
2023-03-31T03:15:21.531Z,93.38
2023-03-31T03:17:49.013Z,92.52
2023-03-31T03:20:19.283Z,92.72
2023-03-31T03:22:45.832Z,93.09
2023-03-31T03:25:17.208Z,92.58
2023-03-31T03:27:44.379Z,93.22
2023-03-31T03:30:12.285Z,93.43
2023-03-31T03:32:39.086Z,93.80
2023-03-31T03:35:06.810Z,93.86
2023-03-31T03:37:36.793Z,94.11
2023-03-31T03:40:05.979Z,93.90
2023-03-31T03:42:33.825Z,94.14
2023-03-31T03:45:01.326Z,94.39
2023-03-31T03:47:28.513Z,94.21
2023-03-31T03:49:55.051Z,94.40
2023-03-31T03:52:21.515Z,94.53
2023-03-31T03:54:48.407Z,94.46
2023-03-31T03:57:15.062Z,94.43
2023-03-31T03:59:41.501Z,94.51
2023-03-31T04:02:08.201Z,94.46
2023-03-31T04:04:34.850Z,94.63
2023-03-31T04:07:01.429Z,94.65
2023-03-31T04:09:28.574Z,94.78
2023-03-31T04:11:55.319Z,94.87
2023-03-31T04:14:21.858Z,94.79
2023-03-31T04:16:48.858Z,94.72
2023-03-31T04:19:17.683Z,94.65
2023-03-31T04:21:50.651Z,94.58
2023-03-31T04:24:21.713Z,94.46
2023-03-31T04:26:50.552Z,94.46
2023-03-31T04:29:17.691Z,94.44
2023-03-31T04:31:44.414Z,94.37
2023-03-31T04:34:15.595Z,94.77
2023-03-31T04:36:47.831Z,94.78
2023-03-31T04:39:17.144Z,94.30
2023-03-31T04:41:44.249Z,94.55
2023-03-31T04:44:10.809Z,94.57
2023-03-31T04:46:37.479Z,94.70
2023-03-31T04:49:05.628Z,94.84
2023-03-31T04:51:32.174Z,94.92
2023-03-31T04:53:58.593Z,94.83
2023-03-31T04:56:25.747Z,95.04
2023-03-31T04:58:52.205Z,95.17
2023-03-31T05:01:18.696Z,95.27
2023-03-31T05:03:48.288Z,95.13
2023-03-31T05:06:17.732Z,95.48
2023-03-31T05:08:44.749Z,95.08
2023-03-31T05:11:11.242Z,95.02
2023-03-31T05:13:37.743Z,94.96
2023-03-31T05:16:09.742Z,95.22
2023-03-31T05:18:36.646Z,94.89
2023-03-31T05:21:15.507Z,95.45
2023-03-31T05:23:42.300Z,94.94
2023-03-31T05:26:09.574Z,94.84
2023-03-31T05:28:36.757Z,94.63
2023-03-31T05:31:07.965Z,94.84
2023-03-31T05:33:34.992Z,94.39
2023-03-31T05:36:01.500Z,94.30
2023-03-31T05:38:31.660Z,94.01
2023-03-31T05:40:58.467Z,94.24
2023-03-31T05:43:28.137Z,93.61
2023-03-31T05:45:54.630Z,93.48
2023-03-31T05:48:21.464Z,93.62
2023-03-31T05:50:48.215Z,93.70
2023-03-31T05:53:14.654Z,93.68
2023-03-31T05:55:41.368Z,93.60
2023-03-31T05:58:08.691Z,93.62
2023-03-31T06:00:36.332Z,93.53
2023-03-31T06:03:03.187Z,93.40
2023-03-31T06:05:31.182Z,93.13
2023-03-31T06:07:57.853Z,92.79
2023-03-31T06:10:24.648Z,92.57
2023-03-31T06:12:51.141Z,92.23
2023-03-31T06:15:17.603Z,92.34
2023-03-31T06:17:44.182Z,91.92
2023-03-31T06:20:24.600Z,91.80
2023-03-31T06:22:53.326Z,91.49
2023-03-31T06:25:19.917Z,91.03
2023-03-31T06:27:46.406Z,90.82
2023-03-31T06:30:22.624Z,90.85
2023-03-31T06:32:49.391Z,90.05
2023-03-31T06:35:15.894Z,90.24
2023-03-31T06:37:42.399Z,89.76
2023-03-31T06:40:09.616Z,89.26
2023-03-31T06:42:36.111Z,88.75
2023-03-31T06:45:02.570Z,88.55
2023-03-31T06:47:28.970Z,88.21
2023-03-31T06:49:55.586Z,88.22
2023-03-31T06:52:22.021Z,88.33
2023-03-31T06:54:48.474Z,88.21
2023-03-31T06:57:15.009Z,87.44
2023-03-31T06:59:41.537Z,86.83
2023-03-31T07:02:10.238Z,86.20
2023-03-31T07:04:36.869Z,85.90
2023-03-31T07:07:03.393Z,85.46
2023-03-31T07:09:29.870Z,85.26
2023-03-31T07:11:56.875Z,85.11
2023-03-31T07:14:23.591Z,84.71
2023-03-31T07:16:50.848Z,84.61
2023-03-31T07:19:17.588Z,84.35
2023-03-31T07:21:44.042Z,84.08
2023-03-31T07:24:10.576Z,83.31
2023-03-31T07:26:37.056Z,83.76
2023-03-31T07:29:03.539Z,82.77
2023-03-31T07:31:30.334Z,82.24
2023-03-31T07:33:57.034Z,81.79
2023-03-31T07:36:23.803Z,82.02
2023-03-31T07:38:50.243Z,81.90
2023-03-31T07:41:20.297Z,81.84
2023-03-31T07:43:50.522Z,80.77
2023-03-31T07:46:19.219Z,80.25
2023-03-31T07:48:47.291Z,79.00
2023-03-31T07:51:22.799Z,79.23
2023-03-31T07:53:49.519Z,79.27
2023-03-31T07:56:17.127Z,79.30
2023-03-31T07:58:44.496Z,78.65
2023-03-31T08:01:17.261Z,79.34
2023-03-31T08:03:45.425Z,79.34
2023-03-31T08:06:12.525Z,79.64
2023-03-31T08:08:43.182Z,79.73
2023-03-31T08:11:11.178Z,79.96
2023-03-31T08:13:37.651Z,79.79
2023-03-31T08:16:04.634Z,80.52
2023-03-31T08:18:31.497Z,81.58
2023-03-31T08:20:58.155Z,82.29
2023-03-31T08:23:24.638Z,83.11
2023-03-31T08:25:53.183Z,83.77
2023-03-31T08:28:19.747Z,84.67
2023-03-31T08:30:46.399Z,85.75
2023-03-31T08:33:13.082Z,86.26
2023-03-31T08:35:39.742Z,86.21
2023-03-31T08:38:06.379Z,86.26
2023-03-31T08:40:33.689Z,86.24
2023-03-31T08:43:08.826Z,86.71
2023-03-31T08:45:39.662Z,86.23
2023-03-31T08:48:25.692Z,87.14
2023-03-31T08:51:05.541Z,88.35
2023-03-31T08:53:39.295Z,88.62
2023-03-31T08:56:14.762Z,88.38
2023-03-31T08:58:44.572Z,88.76
2023-03-31T09:01:22.772Z,89.59
2023-03-31T09:04:12.840Z,90.44
2023-03-31T09:06:39.587Z,89.52
2023-03-31T09:09:28.341Z,89.36
2023-03-31T09:11:58.635Z,89.78
2023-03-31T09:14:28.933Z,89.95
2023-03-31T09:17:01.565Z,89.82
2023-03-31T09:19:43.409Z,91.52
2023-03-31T09:22:18.561Z,91.50
2023-03-31T09:24:59.111Z,92.87
2023-03-31T09:27:28.560Z,92.53
2023-03-31T09:30:22.433Z,94.00
2023-03-31T09:32:53.657Z,92.93
2023-03-31T09:35:23.204Z,92.51
2023-03-31T09:37:50.266Z,91.89
2023-03-31T09:40:20.078Z,91.92
2023-03-31T09:42:51.349Z,92.22
2023-03-31T09:45:20.142Z,90.97
2023-03-31T09:47:52.117Z,91.36
2023-03-31T09:50:19.055Z,91.17
2023-03-31T09:52:57.020Z,90.79
2023-03-31T09:55:45.464Z,91.78
2023-03-31T09:58:15.080Z,90.79
2023-03-31T10:00:43.989Z,90.79
2023-03-31T10:03:14.372Z,91.95
2023-03-31T10:06:00.486Z,93.94
2023-03-31T10:08:39.708Z,93.20
2023-03-31T10:11:06.959Z,92.30
2023-03-31T10:14:04.987Z,92.38
2023-03-31T10:16:53.763Z,89.41
2023-03-31T10:19:31.681Z,89.81
2023-03-31T10:22:21.694Z,89.21
2023-03-31T10:24:50.451Z,87.31
2023-03-31T10:27:26.395Z,88.40
2023-03-31T10:30:13.185Z,89.00
2023-03-31T10:32:43.140Z,87.87
2023-03-31T10:35:29.992Z,88.86
2023-03-31T10:38:06.570Z,89.19
2023-03-31T10:40:35.222Z,89.55
2023-03-31T10:43:26.274Z,90.13
2023-03-31T10:45:59.905Z,90.56
2023-03-31T10:48:29.971Z,90.40
2023-03-31T10:51:17.056Z,91.42
2023-03-31T10:53:49.238Z,87.55
2023-03-31T10:56:42.860Z,87.85
2023-03-31T10:59:15.427Z,85.79
2023-03-31T11:02:00.336Z,88.02
2023-03-31T11:04:44.621Z,85.35
2023-03-31T11:07:27.459Z,88.02
2023-03-31T11:10:20.333Z,86.12
2023-03-31T11:13:11.381Z,84.96
2023-03-31T11:15:56.139Z,84.75
2023-03-31T11:18:36.068Z,83.58
2023-03-31T11:21:18.166Z,84.47
2023-03-31T11:23:58.936Z,83.48
2023-03-31T11:27:16.555Z,81.89
2023-03-31T11:29:52.752Z,82.70
2023-03-31T11:32:52.114Z,82.02
2023-03-31T11:35:38.520Z,82.04
2023-03-31T11:38:33.700Z,82.52
2023-03-31T11:41:13.612Z,82.06
2023-03-31T11:43:51.140Z,82.74
2023-03-31T11:46:23.745Z,83.19
2023-03-31T11:48:59.799Z,82.72
2023-03-31T11:51:34.723Z,82.93
2023-03-31T11:54:11.927Z,82.43
2023-03-31T11:56:41.139Z,82.71
2023-03-31T11:59:14.821Z,83.88
2023-03-31T12:01:51.632Z,84.98
2023-03-31T12:04:33.640Z,85.90
2023-03-31T12:07:14.995Z,86.69
2023-03-31T12:09:53.361Z,87.37
2023-03-31T12:12:27.221Z,88.84
2023-03-31T12:15:02.557Z,88.82
2023-03-31T12:17:29.538Z,88.82
2023-03-31T12:20:10.473Z,89.85
2023-03-31T12:22:43.751Z,90.27
2023-03-31T12:25:27.998Z,90.38
2023-03-31T12:27:56.504Z,89.36
2023-03-31T12:30:38.760Z,89.85
2023-03-31T12:33:14.056Z,90.02
2023-03-31T12:35:50.826Z,91.02
2023-03-31T12:38:24.610Z,91.09
2023-03-31T12:41:19.141Z,91.94
2023-03-31T12:44:23.917Z,92.63
2023-03-31T12:47:29.679Z,92.30
2023-03-31T12:50:35.280Z,92.52
2023-03-31T12:53:35.930Z,93.34
2023-03-31T12:56:02.731Z,92.50
2023-03-31T12:58:32.427Z,92.98
2023-03-31T13:01:05.153Z,93.11
2023-03-31T13:03:35.342Z,92.41
2023-03-31T13:06:04.004Z,92.14
2023-03-31T13:08:51.465Z,94.03
2023-03-31T13:11:20.284Z,94.50
2023-03-31T13:14:17.516Z,94.23
2023-03-31T13:16:44.092Z,93.08
2023-03-31T13:19:24.593Z,94.34
2023-03-31T13:21:54.915Z,92.52
2023-03-31T13:24:22.465Z,91.08
2023-03-31T13:26:49.691Z,88.14
2023-03-31T13:29:16.404Z,87.72
2023-03-31T13:32:01.246Z,88.57
2023-03-31T13:34:47.979Z,87.46
2023-03-31T13:37:33.108Z,87.17
2023-03-31T13:40:50.129Z,87.87
2023-03-31T13:43:36.741Z,86.31
2023-03-31T13:46:34.458Z,86.65
2023-03-31T13:49:19.874Z,86.26
2023-03-31T13:52:10.175Z,86.98
2023-03-31T13:54:39.323Z,86.53
2023-03-31T13:57:39.806Z,85.54
2023-03-31T14:00:44.005Z,86.08
2023-03-31T14:03:13.593Z,84.48
2023-03-31T14:05:45.509Z,84.26
2023-03-31T14:08:19.916Z,83.59
2023-03-31T14:10:46.380Z,83.23
2023-03-31T14:13:14.882Z,81.99
2023-03-31T14:15:53.598Z,83.11
2023-03-31T14:18:30.244Z,84.07
2023-03-31T14:21:17.934Z,84.73
2023-03-31T14:24:28.879Z,82.95
2023-03-31T14:27:12.675Z,80.64
2023-03-31T14:29:55.150Z,80.99
2023-03-31T14:33:09.796Z,81.93
2023-03-31T14:35:44.245Z,81.22
2023-03-31T14:38:15.923Z,79.72
2023-03-31T14:40:48.547Z,80.03
2023-03-31T14:43:36.834Z,78.98
2023-03-31T14:46:08.658Z,77.14
2023-03-31T14:48:45.089Z,76.96
2023-03-31T14:51:14.397Z,78.08
2023-03-31T14:53:41.034Z,76.68
2023-03-31T14:56:12.439Z,76.79
2023-03-31T14:58:44.252Z,77.46
2023-03-31T15:01:17.372Z,77.34
2023-03-31T15:03:44.917Z,76.97
2023-03-31T15:06:11.750Z,76.88
2023-03-31T15:08:38.741Z,75.42
2023-03-31T15:11:12.851Z,72.01
2023-03-31T15:14:00.590Z,72.97
2023-03-31T15:16:42.153Z,71.95
2023-03-31T15:19:16.938Z,71.61
2023-03-31T15:21:44.405Z,71.04
2023-03-31T15:24:14.948Z,72.50
2023-03-31T15:26:46.049Z,73.33
2023-03-31T15:29:19.764Z,74.34
2023-03-31T15:31:47.211Z,74.78
2023-03-31T15:34:30.789Z,76.50
2023-03-31T15:36:57.859Z,77.90
2023-03-31T15:39:27.929Z,78.39
2023-03-31T15:41:56.539Z,78.91
2023-03-31T15:44:30.406Z,80.16
2023-03-31T15:47:01.900Z,80.94
2023-03-31T15:49:29.477Z,80.44
2023-03-31T15:52:01.229Z,80.61
2023-03-31T15:54:43.132Z,81.65
2023-03-31T15:57:17.837Z,81.43
2023-03-31T15:59:57.860Z,81.06
2023-03-31T16:02:46.861Z,81.30
2023-03-31T16:05:29.385Z,81.41
2023-03-31T16:07:58.257Z,80.39
2023-03-31T16:10:25.886Z,80.48
2023-03-31T16:13:00.692Z,81.59
2023-03-31T16:15:40.836Z,81.57
2023-03-31T16:18:14.529Z,81.14
2023-03-31T16:20:46.099Z,81.58
2023-03-31T16:23:26.210Z,82.42
2023-03-31T16:25:53.786Z,81.72
2023-03-31T16:28:23.682Z,82.40
2023-03-31T16:30:50.819Z,82.16
2023-03-31T16:33:20.052Z,82.13
2023-03-31T16:35:53.723Z,82.50
2023-03-31T16:38:22.351Z,82.51
2023-03-31T16:40:51.662Z,82.66
2023-03-31T16:43:22.392Z,82.64
2023-03-31T16:45:52.920Z,82.47
2023-03-31T16:48:21.489Z,82.07
2023-03-31T16:50:50.295Z,82.79
2023-03-31T16:53:19.987Z,82.98
2023-03-31T16:55:47.150Z,82.73
2023-03-31T16:58:13.966Z,82.78
2023-03-31T17:00:41.451Z,81.99
2023-03-31T17:03:10.020Z,82.33
2023-03-31T17:05:45.144Z,83.11
2023-03-31T17:08:12.960Z,82.54
2023-03-31T17:10:40.718Z,82.49
2023-03-31T17:13:08.627Z,82.82
2023-03-31T17:15:36.686Z,82.67
2023-03-31T17:18:04.456Z,82.75
2023-03-31T17:20:31.553Z,82.76
2023-03-31T17:22:58.646Z,82.64
2023-03-31T17:25:25.983Z,82.89
2023-03-31T17:27:52.444Z,82.71
2023-03-31T17:30:24.653Z,83.52
2023-03-31T17:32:52.269Z,82.64
2023-03-31T17:35:23.413Z,82.90
2023-03-31T17:37:53.371Z,82.72
2023-03-31T17:40:20.992Z,82.81
2023-03-31T17:42:47.437Z,82.27
2023-03-31T17:45:14.680Z,82.37
2023-03-31T17:47:41.988Z,82.75
2023-03-31T17:50:09.372Z,82.66
2023-03-31T17:52:36.136Z,82.75
2023-03-31T17:55:04.216Z,83.14
2023-03-31T17:57:40.951Z,84.22
2023-03-31T18:00:10.446Z,83.97
2023-03-31T18:02:38.424Z,83.56
2023-03-31T18:05:06.916Z,83.93
2023-03-31T18:07:34.799Z,84.21
2023-03-31T18:10:02.156Z,84.28
2023-03-31T18:12:29.595Z,84.24
2023-03-31T18:14:56.670Z,84.15
2023-03-31T18:17:23.209Z,84.19
2023-03-31T18:19:49.839Z,84.42
2023-03-31T18:22:16.330Z,84.26
2023-03-31T18:24:44.323Z,84.60
2023-03-31T18:27:10.811Z,84.86
2023-03-31T18:29:39.337Z,84.83
2023-03-31T18:32:06.488Z,85.08
2023-03-31T18:34:33.687Z,85.32
2023-03-31T18:37:00.245Z,85.69
2023-03-31T18:39:27.441Z,86.12
2023-03-31T18:41:54.237Z,85.94
2023-03-31T18:44:21.712Z,86.45
2023-03-31T18:46:48.709Z,86.44
2023-03-31T18:49:15.365Z,86.96
2023-03-31T18:51:41.936Z,87.28
2023-03-31T18:54:08.669Z,87.68
2023-03-31T18:56:35.356Z,88.06
2023-03-31T18:59:04.233Z,88.34
2023-03-31T19:01:39.627Z,88.52
2023-03-31T19:04:07.806Z,88.51
2023-03-31T19:06:35.834Z,88.95
2023-03-31T19:09:02.310Z,88.91
2023-03-31T19:11:28.852Z,89.03
2023-03-31T19:13:55.946Z,89.14
2023-03-31T19:16:24.574Z,89.40
2023-03-31T19:18:51.264Z,89.35
2023-03-31T19:21:17.777Z,89.27
2023-03-31T19:23:44.222Z,89.38
2023-03-31T19:26:15.703Z,89.63
2023-03-31T19:28:42.523Z,88.99
2023-03-31T19:31:10.907Z,89.30
2023-03-31T19:33:37.553Z,89.37
2023-03-31T19:36:04.348Z,89.42
2023-03-31T19:38:32.598Z,89.48
2023-03-31T19:40:59.995Z,89.69
2023-03-31T19:43:27.225Z,89.71
2023-03-31T19:45:56.857Z,89.97
2023-03-31T19:48:26.425Z,90.01
2023-03-31T19:50:55.872Z,90.06
2023-03-31T19:53:23.581Z,89.83
2023-03-31T19:55:59.132Z,91.09
2023-03-31T19:58:27.129Z,90.08
2023-03-31T20:00:55.293Z,90.34
2023-03-31T20:03:24.191Z,90.58
2023-03-31T20:05:51.853Z,90.23
2023-03-31T20:08:18.268Z,90.54
2023-03-31T20:10:44.969Z,90.68
2023-03-31T20:13:11.890Z,91.02
2023-03-31T20:15:39.747Z,91.20
2023-03-31T20:18:07.279Z,91.57
2023-03-31T20:20:34.324Z,91.78
2023-03-31T20:23:00.950Z,92.09
2023-03-31T20:25:27.911Z,92.41
2023-03-31T20:27:54.845Z,92.54
2023-03-31T20:30:21.505Z,92.88
2023-03-31T20:32:47.992Z,92.96
2023-03-31T20:35:14.524Z,93.14
2023-03-31T20:37:40.985Z,93.00
2023-03-31T20:40:07.996Z,93.00
2023-03-31T20:42:35.884Z,92.96
2023-03-31T20:45:03.070Z,93.00
2023-03-31T20:47:29.527Z,92.95
2023-03-31T20:49:55.982Z,92.86
2023-03-31T20:52:23.019Z,93.19
2023-03-31T20:54:49.534Z,92.98
2023-03-31T20:57:16.419Z,92.93
2023-03-31T20:59:42.932Z,92.95
2023-03-31T21:02:12.903Z,93.13
2023-03-31T21:04:39.407Z,92.76
2023-03-31T21:07:06.147Z,92.50
2023-03-31T21:09:33.029Z,92.49
2023-03-31T21:12:00.882Z,92.31
2023-03-31T21:14:27.467Z,92.26
2023-03-31T21:16:54.027Z,92.04
2023-03-31T21:19:21.095Z,91.75
2023-03-31T21:21:47.537Z,91.66
2023-03-31T21:24:14.923Z,91.48
2023-03-31T21:26:41.510Z,91.31
2023-03-31T21:29:08.233Z,91.24
2023-03-31T21:31:35.179Z,91.05
2023-03-31T21:34:02.600Z,90.85
2023-03-31T21:36:29.228Z,90.59
2023-03-31T21:38:57.322Z,90.34
2023-03-31T21:41:30.553Z,90.77
2023-03-31T21:44:00.567Z,90.08
2023-03-31T21:46:30.629Z,89.88
2023-03-31T21:48:57.617Z,89.91
2023-03-31T21:51:25.716Z,90.09
2023-03-31T21:53:55.336Z,90.08
2023-03-31T21:56:23.399Z,90.22
2023-03-31T21:58:50.874Z,90.11
2023-03-31T22:01:18.464Z,90.24
2023-03-31T22:03:45.667Z,90.47
2023-03-31T22:06:12.537Z,90.64
2023-03-31T22:08:39.896Z,90.66
2023-03-31T22:11:08.018Z,90.88
2023-03-31T22:13:35.333Z,90.99
2023-03-31T22:16:03.771Z,91.15
2023-03-31T22:18:30.653Z,91.24
2023-03-31T22:20:57.581Z,91.12
2023-03-31T22:23:24.436Z,91.43
2023-03-31T22:25:51.314Z,91.17
2023-03-31T22:28:17.955Z,91.40
2023-03-31T22:30:44.516Z,91.43
2023-03-31T22:33:11.293Z,91.30
2023-03-31T22:35:37.829Z,91.55
2023-03-31T22:38:06.177Z,91.70
2023-03-31T22:40:34.966Z,91.84
2023-03-31T22:43:01.696Z,91.92
2023-03-31T22:45:28.322Z,92.11
2023-03-31T22:47:55.050Z,92.30
2023-03-31T22:50:21.602Z,92.45
2023-03-31T22:52:48.162Z,92.55
2023-03-31T22:55:14.668Z,92.75
2023-03-31T22:57:41.268Z,93.03
2023-03-31T23:00:09.113Z,93.01
2023-03-31T23:02:35.842Z,93.10
2023-03-31T23:05:02.494Z,92.97
2023-03-31T23:07:29.870Z,93.10
2023-03-31T23:09:56.283Z,93.30
2023-03-31T23:12:25.771Z,93.54
2023-03-31T23:14:52.283Z,93.28
2023-03-31T23:17:19.003Z,93.41
2023-03-31T23:19:48.596Z,93.92
2023-03-31T23:22:15.336Z,93.53
2023-03-31T23:24:42.056Z,93.77
2023-03-31T23:27:24.802Z,94.21
2023-03-31T23:29:51.254Z,93.86
2023-03-31T23:32:18.028Z,93.88
2023-03-31T23:34:44.527Z,93.93
2023-03-31T23:37:13.214Z,94.07
2023-03-31T23:39:39.877Z,93.92
2023-03-31T23:42:07.574Z,93.99
2023-03-31T23:44:37.056Z,94.35
2023-03-31T23:47:04.891Z,94.11
2023-03-31T23:49:38.864Z,95.12
2023-03-31T23:52:05.735Z,94.17
2023-03-31T23:54:32.728Z,94.30
2023-03-31T23:56:59.291Z,94.27
2023-03-31T23:59:28.989Z,94.38
